sensor_id;sensor_type;location;lat;lon;timestamp;temperature;humidity
11264;DHT22;5689;48.798;9.070;2022-08-21T00:01:38;19.20;90.40
11264;DHT22;5689;48.798;9.070;2022-08-21T00:04:07;19.20;90.60
11264;DHT22;5689;48.798;9.070;2022-08-21T00:06:36;19.00;90.90
11264;DHT22;5689;48.798;9.070;2022-08-21T00:09:06;19.10;90.90
11264;DHT22;5689;48.798;9.070;2022-08-21T00:11:36;19.10;90.70
11264;DHT22;5689;48.798;9.070;2022-08-21T00:14:07;19.20;90.70
11264;DHT22;5689;48.798;9.070;2022-08-21T00:16:35;19.20;90.70
11264;DHT22;5689;48.798;9.070;2022-08-21T00:19:05;19.20;90.80
11264;DHT22;5689;48.798;9.070;2022-08-21T00:21:35;19.10;90.80
11264;DHT22;5689;48.798;9.070;2022-08-21T00:24:04;19.10;90.90
11264;DHT22;5689;48.798;9.070;2022-08-21T00:26:32;19.10;90.90
11264;DHT22;5689;48.798;9.070;2022-08-21T00:29:01;19.60;91.20
11264;DHT22;5689;48.798;9.070;2022-08-21T00:31:29;19.10;91.00
11264;DHT22;5689;48.798;9.070;2022-08-21T00:33:57;19.10;91.20
11264;DHT22;5689;48.798;9.070;2022-08-21T00:36:26;19.10;91.40
11264;DHT22;5689;48.798;9.070;2022-08-21T00:38:54;19.00;91.40
11264;DHT22;5689;48.798;9.070;2022-08-21T00:41:24;19.10;91.50
11264;DHT22;5689;48.798;9.070;2022-08-21T00:43:54;18.90;91.70
11264;DHT22;5689;48.798;9.070;2022-08-21T00:46:22;18.80;91.90
11264;DHT22;5689;48.798;9.070;2022-08-21T00:48:51;18.80;92.10
11264;DHT22;5689;48.798;9.070;2022-08-21T00:51:22;18.80;92.00
11264;DHT22;5689;48.798;9.070;2022-08-21T00:53:57;18.60;92.40
11264;DHT22;5689;48.798;9.070;2022-08-21T00:56:27;18.60;92.60
11264;DHT22;5689;48.798;9.070;2022-08-21T00:58:57;18.40;93.10
11264;DHT22;5689;48.798;9.070;2022-08-21T01:01:27;18.30;93.40
11264;DHT22;5689;48.798;9.070;2022-08-21T01:03:55;18.50;93.80
11264;DHT22;5689;48.798;9.070;2022-08-21T01:06:23;18.20;94.10
11264;DHT22;5689;48.798;9.070;2022-08-21T01:08:53;18.20;94.30
11264;DHT22;5689;48.798;9.070;2022-08-21T01:11:21;18.00;94.90
11264;DHT22;5689;48.798;9.070;2022-08-21T01:13:50;17.80;95.30
11264;DHT22;5689;48.798;9.070;2022-08-21T01:16:20;17.80;95.70
11264;DHT22;5689;48.798;9.070;2022-08-21T01:18:50;17.70;96.30
11264;DHT22;5689;48.798;9.070;2022-08-21T01:21:22;17.70;96.40
11264;DHT22;5689;48.798;9.070;2022-08-21T01:23:52;17.80;96.30
11264;DHT22;5689;48.798;9.070;2022-08-21T01:26:24;17.70;96.20
11264;DHT22;5689;48.798;9.070;2022-08-21T01:28:55;17.70;96.40
11264;DHT22;5689;48.798;9.070;2022-08-21T01:31:27;17.60;96.80
11264;DHT22;5689;48.798;9.070;2022-08-21T01:33:56;17.50;97.10
11264;DHT22;5689;48.798;9.070;2022-08-21T01:36:26;17.50;97.30
11264;DHT22;5689;48.798;9.070;2022-08-21T01:38:54;17.50;97.40
11264;DHT22;5689;48.798;9.070;2022-08-21T01:41:23;17.50;97.70
11264;DHT22;5689;48.798;9.070;2022-08-21T01:43:51;17.40;98.00
11264;DHT22;5689;48.798;9.070;2022-08-21T01:46:19;17.40;98.30
11264;DHT22;5689;48.798;9.070;2022-08-21T01:48:47;17.20;98.60
11264;DHT22;5689;48.798;9.070;2022-08-21T01:51:15;17.10;98.80
11264;DHT22;5689;48.798;9.070;2022-08-21T01:53:44;17.10;99.20
11264;DHT22;5689;48.798;9.070;2022-08-21T01:56:14;17.10;99.50
11264;DHT22;5689;48.798;9.070;2022-08-21T01:58:47;17.10;99.90
11264;DHT22;5689;48.798;9.070;2022-08-21T02:01:15;16.90;99.90
11264;DHT22;5689;48.798;9.070;2022-08-21T02:03:43;16.60;99.90
11264;DHT22;5689;48.798;9.070;2022-08-21T02:06:13;16.50;99.90
11264;DHT22;5689;48.798;9.070;2022-08-21T02:08:43;16.40;99.90
11264;DHT22;5689;48.798;9.070;2022-08-21T02:11:11;16.50;99.90
11264;DHT22;5689;48.798;9.070;2022-08-21T02:13:39;16.40;99.90
11264;DHT22;5689;48.798;9.070;2022-08-21T02:16:07;16.40;99.90
11264;DHT22;5689;48.798;9.070;2022-08-21T02:18:36;16.30;99.90
11264;DHT22;5689;48.798;9.070;2022-08-21T02:21:04;16.20;99.90
11264;DHT22;5689;48.798;9.070;2022-08-21T02:23:33;16.10;99.90
11264;DHT22;5689;48.798;9.070;2022-08-21T02:26:05;16.00;99.90
11264;DHT22;5689;48.798;9.070;2022-08-21T02:28:36;16.80;99.90
11264;DHT22;5689;48.798;9.070;2022-08-21T02:31:05;16.20;99.90
11264;DHT22;5689;48.798;9.070;2022-08-21T02:33:33;15.90;99.90
11264;DHT22;5689;48.798;9.070;2022-08-21T02:36:03;15.80;99.90
11264;DHT22;5689;48.798;9.070;2022-08-21T02:38:34;15.80;99.90
11264;DHT22;5689;48.798;9.070;2022-08-21T02:41:08;15.70;99.90
11264;DHT22;5689;48.798;9.070;2022-08-21T02:43:36;15.60;99.90
11264;DHT22;5689;48.798;9.070;2022-08-21T02:46:05;15.50;99.90
11264;DHT22;5689;48.798;9.070;2022-08-21T02:48:34;15.30;99.90
11264;DHT22;5689;48.798;9.070;2022-08-21T02:51:08;15.30;99.90
11264;DHT22;5689;48.798;9.070;2022-08-21T02:53:37;15.40;99.90
11264;DHT22;5689;48.798;9.070;2022-08-21T02:56:09;15.50;99.90
11264;DHT22;5689;48.798;9.070;2022-08-21T02:58:40;15.50;99.90
11264;DHT22;5689;48.798;9.070;2022-08-21T03:01:09;15.60;99.90
11264;DHT22;5689;48.798;9.070;2022-08-21T03:03:39;15.30;99.90
11264;DHT22;5689;48.798;9.070;2022-08-21T03:06:09;15.20;99.90
11264;DHT22;5689;48.798;9.070;2022-08-21T03:08:37;15.10;99.90
11264;DHT22;5689;48.798;9.070;2022-08-21T03:11:07;15.20;99.90
11264;DHT22;5689;48.798;9.070;2022-08-21T03:13:35;15.10;99.90
11264;DHT22;5689;48.798;9.070;2022-08-21T03:16:04;15.00;99.90
11264;DHT22;5689;48.798;9.070;2022-08-21T03:18:34;15.10;99.90
11264;DHT22;5689;48.798;9.070;2022-08-21T03:21:03;15.10;99.90
11264;DHT22;5689;48.798;9.070;2022-08-21T03:23:31;15.30;99.90
11264;DHT22;5689;48.798;9.070;2022-08-21T03:25:59;15.10;99.90
11264;DHT22;5689;48.798;9.070;2022-08-21T03:28:29;15.00;99.90
11264;DHT22;5689;48.798;9.070;2022-08-21T03:30:57;15.00;99.90
11264;DHT22;5689;48.798;9.070;2022-08-21T03:33:25;14.90;99.90
11264;DHT22;5689;48.798;9.070;2022-08-21T03:35:58;14.80;99.90
11264;DHT22;5689;48.798;9.070;2022-08-21T03:38:28;14.70;99.90
11264;DHT22;5689;48.798;9.070;2022-08-21T03:40:57;14.70;99.90
11264;DHT22;5689;48.798;9.070;2022-08-21T03:43:31;14.60;99.90
11264;DHT22;5689;48.798;9.070;2022-08-21T03:46:01;14.70;99.90
11264;DHT22;5689;48.798;9.070;2022-08-21T03:48:30;14.80;99.90
11264;DHT22;5689;48.798;9.070;2022-08-21T03:50:58;14.80;99.90
11264;DHT22;5689;48.798;9.070;2022-08-21T03:53:26;14.70;99.90
11264;DHT22;5689;48.798;9.070;2022-08-21T03:55:54;14.60;99.90
11264;DHT22;5689;48.798;9.070;2022-08-21T03:58:25;14.50;99.90
11264;DHT22;5689;48.798;9.070;2022-08-21T04:00:57;14.40;99.90
11264;DHT22;5689;48.798;9.070;2022-08-21T04:03:27;14.30;99.90
11264;DHT22;5689;48.798;9.070;2022-08-21T04:05:55;14.30;99.90
11264;DHT22;5689;48.798;9.070;2022-08-21T04:08:25;14.20;99.90
11264;DHT22;5689;48.798;9.070;2022-08-21T04:10:56;14.20;99.90
11264;DHT22;5689;48.798;9.070;2022-08-21T04:13:26;14.30;99.90
11264;DHT22;5689;48.798;9.070;2022-08-21T04:15:56;14.20;99.90
11264;DHT22;5689;48.798;9.070;2022-08-21T04:18:25;14.40;99.90
11264;DHT22;5689;48.798;9.070;2022-08-21T04:20:54;14.30;99.90
11264;DHT22;5689;48.798;9.070;2022-08-21T04:23:23;14.40;99.90
11264;DHT22;5689;48.798;9.070;2022-08-21T04:25:53;14.50;99.90
11264;DHT22;5689;48.798;9.070;2022-08-21T04:28:23;14.50;99.90
11264;DHT22;5689;48.798;9.070;2022-08-21T04:30:52;14.50;99.90
11264;DHT22;5689;48.798;9.070;2022-08-21T04:33:33;14.50;99.90
11264;DHT22;5689;48.798;9.070;2022-08-21T04:36:01;14.40;99.90
11264;DHT22;5689;48.798;9.070;2022-08-21T04:38:29;14.30;99.90
11264;DHT22;5689;48.798;9.070;2022-08-21T04:40:58;14.30;99.90
11264;DHT22;5689;48.798;9.070;2022-08-21T04:43:26;14.20;99.90
11264;DHT22;5689;48.798;9.070;2022-08-21T04:45:55;14.20;99.90
11264;DHT22;5689;48.798;9.070;2022-08-21T04:48:23;14.10;99.90
11264;DHT22;5689;48.798;9.070;2022-08-21T04:50:56;14.40;99.90
11264;DHT22;5689;48.798;9.070;2022-08-21T04:53:31;14.30;99.90
11264;DHT22;5689;48.798;9.070;2022-08-21T04:56:07;14.20;99.90
11264;DHT22;5689;48.798;9.070;2022-08-21T04:58:38;14.20;99.90
11264;DHT22;5689;48.798;9.070;2022-08-21T05:01:09;14.20;99.90
11264;DHT22;5689;48.798;9.070;2022-08-21T05:03:39;14.40;99.90
11264;DHT22;5689;48.798;9.070;2022-08-21T05:06:10;14.40;99.90
11264;DHT22;5689;48.798;9.070;2022-08-21T05:08:41;14.40;99.90
11264;DHT22;5689;48.798;9.070;2022-08-21T05:11:10;14.40;99.90
11264;DHT22;5689;48.798;9.070;2022-08-21T05:13:38;14.40;99.90
11264;DHT22;5689;48.798;9.070;2022-08-21T05:16:07;14.50;99.90
11264;DHT22;5689;48.798;9.070;2022-08-21T05:18:35;14.50;99.90
11264;DHT22;5689;48.798;9.070;2022-08-21T05:21:09;14.60;99.90
11264;DHT22;5689;48.798;9.070;2022-08-21T05:23:37;14.90;99.90
11264;DHT22;5689;48.798;9.070;2022-08-21T05:26:05;15.10;99.90
11264;DHT22;5689;48.798;9.070;2022-08-21T05:28:33;15.20;99.90
11264;DHT22;5689;48.798;9.070;2022-08-21T05:31:01;15.20;99.90
11264;DHT22;5689;48.798;9.070;2022-08-21T05:33:30;15.30;99.90
11264;DHT22;5689;48.798;9.070;2022-08-21T05:35:58;15.40;99.90
11264;DHT22;5689;48.798;9.070;2022-08-21T05:38:30;15.50;99.90
11264;DHT22;5689;48.798;9.070;2022-08-21T05:40:58;15.50;99.90
11264;DHT22;5689;48.798;9.070;2022-08-21T05:43:26;15.60;99.90
11264;DHT22;5689;48.798;9.070;2022-08-21T05:45:55;15.80;99.90
11264;DHT22;5689;48.798;9.070;2022-08-21T05:48:25;15.80;99.90
11264;DHT22;5689;48.798;9.070;2022-08-21T05:51:05;16.00;99.90
11264;DHT22;5689;48.798;9.070;2022-08-21T05:53:35;16.70;99.90
11264;DHT22;5689;48.798;9.070;2022-08-21T05:56:03;17.20;99.90
11264;DHT22;5689;48.798;9.070;2022-08-21T05:58:32;18.30;99.90
11264;DHT22;5689;48.798;9.070;2022-08-21T06:01:01;19.20;99.90
11264;DHT22;5689;48.798;9.070;2022-08-21T06:03:34;19.60;99.90
11264;DHT22;5689;48.798;9.070;2022-08-21T06:06:02;19.80;99.90
11264;DHT22;5689;48.798;9.070;2022-08-21T06:08:31;20.20;99.90
11264;DHT22;5689;48.798;9.070;2022-08-21T06:11:15;20.20;99.90
11264;DHT22;5689;48.798;9.070;2022-08-21T06:13:44;20.30;99.90
11264;DHT22;5689;48.798;9.070;2022-08-21T06:16:14;20.40;99.90
11264;DHT22;5689;48.798;9.070;2022-08-21T06:18:43;20.10;99.90
11264;DHT22;5689;48.798;9.070;2022-08-21T06:21:12;20.40;99.90
11264;DHT22;5689;48.798;9.070;2022-08-21T06:23:40;21.20;99.90
11264;DHT22;5689;48.798;9.070;2022-08-21T06:26:09;22.20;99.90
11264;DHT22;5689;48.798;9.070;2022-08-21T06:28:40;22.60;99.90
11264;DHT22;5689;48.798;9.070;2022-08-21T06:31:13;22.30;99.50
11264;DHT22;5689;48.798;9.070;2022-08-21T06:33:43;23.00;98.10
11264;DHT22;5689;48.798;9.070;2022-08-21T06:36:13;23.80;96.50
11264;DHT22;5689;48.798;9.070;2022-08-21T06:38:41;24.10;95.10
11264;DHT22;5689;48.798;9.070;2022-08-21T06:41:09;24.20;94.40
11264;DHT22;5689;48.798;9.070;2022-08-21T06:43:39;24.40;93.70
11264;DHT22;5689;48.798;9.070;2022-08-21T06:46:07;24.50;93.60
11264;DHT22;5689;48.798;9.070;2022-08-21T06:48:36;23.80;93.40
11264;DHT22;5689;48.798;9.070;2022-08-21T06:51:04;24.40;92.90
11264;DHT22;5689;48.798;9.070;2022-08-21T06:53:33;25.30;91.60
11264;DHT22;5689;48.798;9.070;2022-08-21T06:56:02;24.60;91.40
11264;DHT22;5689;48.798;9.070;2022-08-21T06:58:30;24.50;92.00
11264;DHT22;5689;48.798;9.070;2022-08-21T07:01:00;25.70;90.40
11264;DHT22;5689;48.798;9.070;2022-08-21T07:03:30;26.50;86.00
11264;DHT22;5689;48.798;9.070;2022-08-21T07:06:04;26.40;84.20
11264;DHT22;5689;48.798;9.070;2022-08-21T07:08:32;25.80;85.60
11264;DHT22;5689;48.798;9.070;2022-08-21T07:11:04;26.20;85.40
11264;DHT22;5689;48.798;9.070;2022-08-21T07:13:34;26.30;84.80
11264;DHT22;5689;48.798;9.070;2022-08-21T07:16:04;26.70;83.50
11264;DHT22;5689;48.798;9.070;2022-08-21T07:18:33;27.50;80.70
11264;DHT22;5689;48.798;9.070;2022-08-21T07:21:01;27.10;80.00
11264;DHT22;5689;48.798;9.070;2022-08-21T07:23:33;26.90;82.40
11264;DHT22;5689;48.798;9.070;2022-08-21T07:26:02;28.30;77.30
11264;DHT22;5689;48.798;9.070;2022-08-21T07:28:40;27.90;76.60
11264;DHT22;5689;48.798;9.070;2022-08-21T07:31:13;26.70;81.80
11264;DHT22;5689;48.798;9.070;2022-08-21T07:33:42;28.10;77.00
11264;DHT22;5689;48.798;9.070;2022-08-21T07:36:10;28.80;75.80
11264;DHT22;5689;48.798;9.070;2022-08-21T07:38:39;29.10;73.60
11264;DHT22;5689;48.798;9.070;2022-08-21T07:41:13;30.10;71.10
11264;DHT22;5689;48.798;9.070;2022-08-21T07:43:41;30.00;71.10
11264;DHT22;5689;48.798;9.070;2022-08-21T07:46:12;29.90;70.00
11264;DHT22;5689;48.798;9.070;2022-08-21T07:48:40;29.80;69.60
11264;DHT22;5689;48.798;9.070;2022-08-21T07:51:10;28.10;73.40
11264;DHT22;5689;48.798;9.070;2022-08-21T07:53:41;27.60;74.70
11264;DHT22;5689;48.798;9.070;2022-08-21T07:56:09;28.10;73.50
11264;DHT22;5689;48.798;9.070;2022-08-21T07:58:42;28.80;72.50
11264;DHT22;5689;48.798;9.070;2022-08-21T08:01:16;29.70;70.40
11264;DHT22;5689;48.798;9.070;2022-08-21T08:03:45;30.60;67.10
11264;DHT22;5689;48.798;9.070;2022-08-21T08:06:13;30.10;68.40
11264;DHT22;5689;48.798;9.070;2022-08-21T08:08:43;30.20;66.60
11264;DHT22;5689;48.798;9.070;2022-08-21T08:11:12;31.50;65.80
11264;DHT22;5689;48.798;9.070;2022-08-21T08:13:43;32.50;62.60
11264;DHT22;5689;48.798;9.070;2022-08-21T08:16:16;30.80;65.00
11264;DHT22;5689;48.798;9.070;2022-08-21T08:18:45;30.20;67.10
11264;DHT22;5689;48.798;9.070;2022-08-21T08:21:15;30.50;65.00
11264;DHT22;5689;48.798;9.070;2022-08-21T08:23:44;30.80;63.60
11264;DHT22;5689;48.798;9.070;2022-08-21T08:26:12;32.80;60.80
11264;DHT22;5689;48.798;9.070;2022-08-21T08:28:42;31.20;61.40
11264;DHT22;5689;48.798;9.070;2022-08-21T08:31:10;29.10;65.60
11264;DHT22;5689;48.798;9.070;2022-08-21T08:33:40;29.80;66.10
11264;DHT22;5689;48.798;9.070;2022-08-21T08:36:13;30.50;63.40
11264;DHT22;5689;48.798;9.070;2022-08-21T08:38:42;30.00;64.20
11264;DHT22;5689;48.798;9.070;2022-08-21T08:41:20;29.00;65.70
11264;DHT22;5689;48.798;9.070;2022-08-21T08:43:52;29.80;64.10
11264;DHT22;5689;48.798;9.070;2022-08-21T08:46:28;31.30;61.80
11264;DHT22;5689;48.798;9.070;2022-08-21T08:49:03;31.80;60.00
11264;DHT22;5689;48.798;9.070;2022-08-21T08:51:39;32.40;59.60
11264;DHT22;5689;48.798;9.070;2022-08-21T08:54:11;33.50;57.70
11264;DHT22;5689;48.798;9.070;2022-08-21T08:56:47;33.30;58.00
11264;DHT22;5689;48.798;9.070;2022-08-21T08:59:23;32.90;58.60
11264;DHT22;5689;48.798;9.070;2022-08-21T09:01:54;32.90;56.70
11264;DHT22;5689;48.798;9.070;2022-08-21T09:04:25;31.30;58.10
11264;DHT22;5689;48.798;9.070;2022-08-21T09:07:07;31.80;57.60
11264;DHT22;5689;48.798;9.070;2022-08-21T09:09:48;31.20;57.30
11264;DHT22;5689;48.798;9.070;2022-08-21T09:12:28;30.90;57.20
11264;DHT22;5689;48.798;9.070;2022-08-21T09:15:03;32.90;56.00
11264;DHT22;5689;48.798;9.070;2022-08-21T09:17:42;32.70;56.10
11264;DHT22;5689;48.798;9.070;2022-08-21T09:20:25;30.50;57.50
11264;DHT22;5689;48.798;9.070;2022-08-21T09:23:04;31.90;58.00
11264;DHT22;5689;48.798;9.070;2022-08-21T09:25:42;33.10;56.10
11264;DHT22;5689;48.798;9.070;2022-08-21T09:28:13;33.50;54.90
11264;DHT22;5689;48.798;9.070;2022-08-21T09:30:41;33.20;55.20
11264;DHT22;5689;48.798;9.070;2022-08-21T09:33:12;31.60;57.10
11264;DHT22;5689;48.798;9.070;2022-08-21T09:35:51;30.90;58.10
11264;DHT22;5689;48.798;9.070;2022-08-21T09:38:29;32.40;57.10
11264;DHT22;5689;48.798;9.070;2022-08-21T09:41:01;31.50;56.40
11264;DHT22;5689;48.798;9.070;2022-08-21T09:43:30;31.70;56.90
11264;DHT22;5689;48.798;9.070;2022-08-21T09:46:07;33.00;55.70
11264;DHT22;5689;48.798;9.070;2022-08-21T09:48:42;32.10;56.30
11264;DHT22;5689;48.798;9.070;2022-08-21T09:51:14;32.90;55.90
11264;DHT22;5689;48.798;9.070;2022-08-21T09:53:45;34.40;54.10
11264;DHT22;5689;48.798;9.070;2022-08-21T09:56:25;35.90;51.40
11264;DHT22;5689;48.798;9.070;2022-08-21T09:59:14;33.80;53.80
11264;DHT22;5689;48.798;9.070;2022-08-21T10:01:44;33.70;53.50
11264;DHT22;5689;48.798;9.070;2022-08-21T10:04:13;34.50;53.00
11264;DHT22;5689;48.798;9.070;2022-08-21T10:06:42;32.50;53.30
11264;DHT22;5689;48.798;9.070;2022-08-21T10:09:11;32.20;54.50
11264;DHT22;5689;48.798;9.070;2022-08-21T10:11:55;33.10;53.70
11264;DHT22;5689;48.798;9.070;2022-08-21T10:14:40;31.90;55.20
11264;DHT22;5689;48.798;9.070;2022-08-21T10:17:17;29.90;58.30
11264;DHT22;5689;48.798;9.070;2022-08-21T10:19:51;32.30;55.00
11264;DHT22;5689;48.798;9.070;2022-08-21T10:22:32;32.80;55.70
11264;DHT22;5689;48.798;9.070;2022-08-21T10:25:08;32.40;54.50
11264;DHT22;5689;48.798;9.070;2022-08-21T10:27:47;32.20;55.60
11264;DHT22;5689;48.798;9.070;2022-08-21T10:30:27;32.00;56.00
11264;DHT22;5689;48.798;9.070;2022-08-21T10:33:14;33.90;53.50
11264;DHT22;5689;48.798;9.070;2022-08-21T10:35:51;35.00;51.80
11264;DHT22;5689;48.798;9.070;2022-08-21T10:38:56;32.80;54.10
11264;DHT22;5689;48.798;9.070;2022-08-21T10:41:54;32.80;54.70
11264;DHT22;5689;48.798;9.070;2022-08-21T10:44:33;33.00;54.30
11264;DHT22;5689;48.798;9.070;2022-08-21T10:47:10;35.00;51.50
11264;DHT22;5689;48.798;9.070;2022-08-21T10:49:45;36.60;49.70
11264;DHT22;5689;48.798;9.070;2022-08-21T10:52:35;37.10;48.60
11264;DHT22;5689;48.798;9.070;2022-08-21T10:55:15;35.40;49.70
11264;DHT22;5689;48.798;9.070;2022-08-21T10:57:47;32.10;54.50
11264;DHT22;5689;48.798;9.070;2022-08-21T11:00:19;32.50;54.80
11264;DHT22;5689;48.798;9.070;2022-08-21T11:02:53;34.70;51.80
11264;DHT22;5689;48.798;9.070;2022-08-21T11:05:27;37.10;49.30
11264;DHT22;5689;48.798;9.070;2022-08-21T11:08:02;34.90;49.80
11264;DHT22;5689;48.798;9.070;2022-08-21T11:10:38;35.80;50.50
11264;DHT22;5689;48.798;9.070;2022-08-21T11:13:13;38.10;48.30
11264;DHT22;5689;48.798;9.070;2022-08-21T11:15:48;37.50;47.40
11264;DHT22;5689;48.798;9.070;2022-08-21T11:18:22;38.70;45.80
11264;DHT22;5689;48.798;9.070;2022-08-21T11:21:01;40.60;43.90
11264;DHT22;5689;48.798;9.070;2022-08-21T11:23:38;36.70;46.00
11264;DHT22;5689;48.798;9.070;2022-08-21T11:26:13;34.00;50.10
11264;DHT22;5689;48.798;9.070;2022-08-21T11:28:47;31.60;52.60
11264;DHT22;5689;48.798;9.070;2022-08-21T11:31:26;30.80;54.30
11264;DHT22;5689;48.798;9.070;2022-08-21T11:34:09;31.70;53.80
11264;DHT22;5689;48.798;9.070;2022-08-21T11:36:44;32.40;54.40
11264;DHT22;5689;48.798;9.070;2022-08-21T11:39:22;35.30;50.20
11264;DHT22;5689;48.798;9.070;2022-08-21T11:42:01;34.10;50.20
11264;DHT22;5689;48.798;9.070;2022-08-21T11:44:46;31.00;55.20
11264;DHT22;5689;48.798;9.070;2022-08-21T11:47:25;31.40;54.00
11264;DHT22;5689;48.798;9.070;2022-08-21T11:50:10;32.10;53.80
11264;DHT22;5689;48.798;9.070;2022-08-21T11:52:42;34.20;51.20
11264;DHT22;5689;48.798;9.070;2022-08-21T11:55:15;32.30;52.60
11264;DHT22;5689;48.798;9.070;2022-08-21T11:57:52;30.40;54.90
11264;DHT22;5689;48.798;9.070;2022-08-21T12:00:24;30.20;55.30
11264;DHT22;5689;48.798;9.070;2022-08-21T12:02:56;29.20;56.70
11264;DHT22;5689;48.798;9.070;2022-08-21T12:05:30;28.60;57.80
11264;DHT22;5689;48.798;9.070;2022-08-21T12:08:03;28.90;57.70
11264;DHT22;5689;48.798;9.070;2022-08-21T12:10:34;28.60;57.20
11264;DHT22;5689;48.798;9.070;2022-08-21T12:13:10;28.60;57.70
11264;DHT22;5689;48.798;9.070;2022-08-21T12:15:40;29.30;56.50
11264;DHT22;5689;48.798;9.070;2022-08-21T12:18:21;29.50;56.80
11264;DHT22;5689;48.798;9.070;2022-08-21T12:21:04;29.70;56.10
11264;DHT22;5689;48.798;9.070;2022-08-21T12:23:33;30.20;55.40
11264;DHT22;5689;48.798;9.070;2022-08-21T12:26:26;29.20;56.10
11264;DHT22;5689;48.798;9.070;2022-08-21T12:29:20;29.80;56.70
11264;DHT22;5689;48.798;9.070;2022-08-21T12:31:56;30.80;54.80
11264;DHT22;5689;48.798;9.070;2022-08-21T12:37:15;36.40;48.50
11264;DHT22;5689;48.798;9.070;2022-08-21T12:39:48;35.90;47.20
11264;DHT22;5689;48.798;9.070;2022-08-21T12:42:20;35.20;48.60
11264;DHT22;5689;48.798;9.070;2022-08-21T12:44:54;37.70;47.10
11264;DHT22;5689;48.798;9.070;2022-08-21T12:47:29;38.80;43.80
11264;DHT22;5689;48.798;9.070;2022-08-21T12:50:01;38.90;43.80
11264;DHT22;5689;48.798;9.070;2022-08-21T12:52:33;37.30;45.20
11264;DHT22;5689;48.798;9.070;2022-08-21T12:55:06;33.70;49.60
11264;DHT22;5689;48.798;9.070;2022-08-21T12:57:36;34.10;49.00
11264;DHT22;5689;48.798;9.070;2022-08-21T13:00:09;35.60;47.60
11264;DHT22;5689;48.798;9.070;2022-08-21T13:02:43;36.10;46.80
11264;DHT22;5689;48.798;9.070;2022-08-21T13:05:26;34.20;47.60
11264;DHT22;5689;48.798;9.070;2022-08-21T13:07:55;33.40;50.30
11264;DHT22;5689;48.798;9.070;2022-08-21T13:10:25;34.40;49.40
11264;DHT22;5689;48.798;9.070;2022-08-21T13:12:55;37.10;45.70
11264;DHT22;5689;48.798;9.070;2022-08-21T13:15:28;37.60;44.20
11264;DHT22;5689;48.798;9.070;2022-08-21T13:17:57;37.60;45.00
11264;DHT22;5689;48.798;9.070;2022-08-21T13:20:30;35.30;46.40
11264;DHT22;5689;48.798;9.070;2022-08-21T13:23:00;35.80;46.20
11264;DHT22;5689;48.798;9.070;2022-08-21T13:25:35;38.70;44.10
11264;DHT22;5689;48.798;9.070;2022-08-21T13:28:06;39.20;43.40
11264;DHT22;5689;48.798;9.070;2022-08-21T13:30:42;37.80;42.70
11264;DHT22;5689;48.798;9.070;2022-08-21T13:33:12;38.20;43.00
11264;DHT22;5689;48.798;9.070;2022-08-21T13:35:49;36.30;44.60
11264;DHT22;5689;48.798;9.070;2022-08-21T13:38:20;34.30;46.60
11264;DHT22;5689;48.798;9.070;2022-08-21T13:40:53;33.60;47.30
11264;DHT22;5689;48.798;9.070;2022-08-21T13:43:27;35.20;46.60
11264;DHT22;5689;48.798;9.070;2022-08-21T13:46:09;33.20;47.90
11264;DHT22;5689;48.798;9.070;2022-08-21T13:48:37;32.90;48.60
11264;DHT22;5689;48.798;9.070;2022-08-21T13:51:06;34.40;47.60
11264;DHT22;5689;48.798;9.070;2022-08-21T13:53:44;35.60;46.20
11264;DHT22;5689;48.798;9.070;2022-08-21T13:56:22;37.40;44.10
11264;DHT22;5689;48.798;9.070;2022-08-21T13:58:52;37.00;44.80
11264;DHT22;5689;48.798;9.070;2022-08-21T14:01:25;36.40;45.40
11264;DHT22;5689;48.798;9.070;2022-08-21T14:04:05;39.20;42.50
11264;DHT22;5689;48.798;9.070;2022-08-21T14:06:36;38.20;43.00
11264;DHT22;5689;48.798;9.070;2022-08-21T14:09:09;37.40;43.40
11264;DHT22;5689;48.798;9.070;2022-08-21T14:11:38;37.00;43.60
11264;DHT22;5689;48.798;9.070;2022-08-21T14:14:18;38.70;42.40
11264;DHT22;5689;48.798;9.070;2022-08-21T14:16:56;36.10;44.40
11264;DHT22;5689;48.798;9.070;2022-08-21T14:19:34;37.00;44.20
11264;DHT22;5689;48.798;9.070;2022-08-21T14:22:21;37.10;43.30
11264;DHT22;5689;48.798;9.070;2022-08-21T14:24:49;38.80;42.10
11264;DHT22;5689;48.798;9.070;2022-08-21T14:27:26;35.50;45.00
11264;DHT22;5689;48.798;9.070;2022-08-21T14:29:58;35.50;45.30
11264;DHT22;5689;48.798;9.070;2022-08-21T14:32:35;34.60;44.80
11264;DHT22;5689;48.798;9.070;2022-08-21T14:35:05;35.90;44.40
11264;DHT22;5689;48.798;9.070;2022-08-21T14:37:34;39.00;41.20
11264;DHT22;5689;48.798;9.070;2022-08-21T14:40:03;38.70;41.70
11264;DHT22;5689;48.798;9.070;2022-08-21T14:42:32;36.20;43.50
11264;DHT22;5689;48.798;9.070;2022-08-21T14:45:10;37.10;42.80
11264;DHT22;5689;48.798;9.070;2022-08-21T14:47:41;39.50;39.90
11264;DHT22;5689;48.798;9.070;2022-08-21T14:50:11;37.10;41.90
11264;DHT22;5689;48.798;9.070;2022-08-21T14:52:41;34.10;44.70
11264;DHT22;5689;48.798;9.070;2022-08-21T14:55:14;32.60;46.60
11264;DHT22;5689;48.798;9.070;2022-08-21T14:57:45;31.90;47.70
11264;DHT22;5689;48.798;9.070;2022-08-21T15:00:15;29.80;51.10
11264;DHT22;5689;48.798;9.070;2022-08-21T15:02:46;29.40;51.30
11264;DHT22;5689;48.798;9.070;2022-08-21T15:05:14;29.40;51.50
11264;DHT22;5689;48.798;9.070;2022-08-21T15:07:42;29.00;52.20
11264;DHT22;5689;48.798;9.070;2022-08-21T15:10:11;28.80;52.60
11264;DHT22;5689;48.798;9.070;2022-08-21T15:12:40;29.40;51.50
11264;DHT22;5689;48.798;9.070;2022-08-21T15:15:08;29.00;52.80
11264;DHT22;5689;48.798;9.070;2022-08-21T15:17:37;29.70;51.10
11264;DHT22;5689;48.798;9.070;2022-08-21T15:20:08;30.10;51.10
11264;DHT22;5689;48.798;9.070;2022-08-21T15:22:37;30.80;49.90
11264;DHT22;5689;48.798;9.070;2022-08-21T15:25:06;31.00;49.70
11264;DHT22;5689;48.798;9.070;2022-08-21T15:27:34;32.10;48.40
11264;DHT22;5689;48.798;9.070;2022-08-21T15:30:03;33.30;46.10
11264;DHT22;5689;48.798;9.070;2022-08-21T15:32:31;35.10;44.90
11264;DHT22;5689;48.798;9.070;2022-08-21T15:35:00;35.90;43.10
11264;DHT22;5689;48.798;9.070;2022-08-21T15:37:29;35.40;42.80
11264;DHT22;5689;48.798;9.070;2022-08-21T15:39:57;34.60;44.50
11264;DHT22;5689;48.798;9.070;2022-08-21T15:42:26;33.80;44.30
11264;DHT22;5689;48.798;9.070;2022-08-21T15:44:56;32.70;46.40
11264;DHT22;5689;48.798;9.070;2022-08-21T15:47:29;31.00;48.00
11264;DHT22;5689;48.798;9.070;2022-08-21T15:49:58;29.90;49.90
11264;DHT22;5689;48.798;9.070;2022-08-21T15:52:26;29.50;50.40
11264;DHT22;5689;48.798;9.070;2022-08-21T15:54:56;31.60;48.40
11264;DHT22;5689;48.798;9.070;2022-08-21T15:57:25;33.90;45.60
11264;DHT22;5689;48.798;9.070;2022-08-21T15:59:55;34.50;45.10
11264;DHT22;5689;48.798;9.070;2022-08-21T16:02:26;34.90;44.30
11264;DHT22;5689;48.798;9.070;2022-08-21T16:04:55;35.90;42.60
11264;DHT22;5689;48.798;9.070;2022-08-21T16:07:23;36.60;42.90
11264;DHT22;5689;48.798;9.070;2022-08-21T16:09:52;34.60;43.80
11264;DHT22;5689;48.798;9.070;2022-08-21T16:12:26;35.10;44.20
11264;DHT22;5689;48.798;9.070;2022-08-21T16:14:54;35.70;42.50
11264;DHT22;5689;48.798;9.070;2022-08-21T16:17:27;35.60;42.90